KBDU

Boulder Municipal Airport

Boulder, Colorado, USA
METAR KBDU 162154Z AUTO 00000KT 10SM CLR 29/12 A3018 RMK AO2
Observed Flight Rules
Jul-16 @ 21:54 UTC (21 minutes ago) Visual Flight Rules
Visibility Clouds
10 miles
  • Clear skies
Temperatures Readings
Current 29°C / 84°F
Dewpoint 12°C / 54°F
Humidity 35%
Altimeter 30.18" Hg
Pressure 1022 hPa
Elevation 1612
METAR KBDU 162154Z AUTO 00000KT 10SM CLR 29/12 A3018 RMK AO2
Observed Flight Rules
Jul-16 @ 21:54 UTC
(21 minutes ago)
VFR
Clouds
  • Clear skies
Temperature Dewpoint
29°C / 84°F 12°C / 54°F
Humidity Altimeter Pressure
35% 30.18" Hg 1022 hPa